createdAt,value
2018-12-20T00:00:56.819Z,35.17
2018-12-20T00:03:26.231Z,36.27
2018-12-20T00:05:55.682Z,37.03
2018-12-20T00:08:25.397Z,38.43
2018-12-20T00:10:55.940Z,38.20
2018-12-20T00:13:26.238Z,37.67
2018-12-20T00:15:55.705Z,37.63
2018-12-20T00:18:25.282Z,38.27
2018-12-20T00:20:54.774Z,40.47
2018-12-20T00:23:27.758Z,38.37
2018-12-20T00:25:57.245Z,38.87
2018-12-20T00:28:27.540Z,38.80
2018-12-20T00:30:57.735Z,39.53
2018-12-20T00:33:27.610Z,38.33
2018-12-20T00:35:57.816Z,38.30
2018-12-20T00:38:28.046Z,39.00
2018-12-20T00:40:57.546Z,39.17
2018-12-20T00:43:27.435Z,40.60
2018-12-20T00:45:57.022Z,40.40
2018-12-20T00:48:26.637Z,39.43
2018-12-20T00:50:56.503Z,40.27
2018-12-20T00:53:26.672Z,37.03
2018-12-20T00:55:56.110Z,37.80
2018-12-20T00:58:25.681Z,39.97
2018-12-20T01:00:55.107Z,39.37
2018-12-20T01:03:24.560Z,38.77
2018-12-20T01:05:53.969Z,38.20
2018-12-20T01:08:23.507Z,38.80
2018-12-20T01:10:55.350Z,40.23
2018-12-20T01:13:24.786Z,39.17
2018-12-20T01:15:54.736Z,38.37
2018-12-20T01:18:24.493Z,38.60
2018-12-20T01:20:54.153Z,40.40
2018-12-20T01:23:24.175Z,38.80
2018-12-20T01:25:53.978Z,38.87
2018-12-20T01:28:23.491Z,37.33
2018-12-20T01:30:52.963Z,39.83
2018-12-20T01:33:23.307Z,40.45
2018-12-20T01:35:52.780Z,39.15
2018-12-20T01:38:22.298Z,38.43
2018-12-20T01:40:54.847Z,39.43
2018-12-20T01:43:25.030Z,38.57
2018-12-20T01:45:54.444Z,38.67
2018-12-20T01:48:23.848Z,37.67
2018-12-20T01:50:53.526Z,38.07
2018-12-20T01:53:24.142Z,38.37
2018-12-20T01:55:54.006Z,38.60
2018-12-20T01:58:24.249Z,38.27
2018-12-20T02:00:54.280Z,36.03
2018-12-20T02:03:24.418Z,39.10
2018-12-20T02:05:53.904Z,40.37
2018-12-20T02:08:23.401Z,38.90
2018-12-20T02:10:53.494Z,37.87
2018-12-20T02:13:22.956Z,38.37
2018-12-20T02:15:53.145Z,38.55
2018-12-20T02:18:23.291Z,38.00
2018-12-20T02:20:53.358Z,37.90
2018-12-20T02:23:22.862Z,38.47
2018-12-20T02:25:52.294Z,38.25
2018-12-20T02:28:22.181Z,37.43
2018-12-20T02:30:52.195Z,37.25
2018-12-20T02:33:21.571Z,36.67
2018-12-20T02:35:51.063Z,38.37
2018-12-20T02:38:20.713Z,37.47
2018-12-20T02:40:50.511Z,37.60
2018-12-20T02:43:19.892Z,37.30
2018-12-20T02:45:49.656Z,40.10
2018-12-20T02:48:19.976Z,37.67
2018-12-20T02:50:50.062Z,36.48
2018-12-20T02:53:19.873Z,36.73
2018-12-20T02:55:50.342Z,36.83
2018-12-20T02:58:20.068Z,36.60
2018-12-20T03:00:50.050Z,37.13
2018-12-20T03:03:21.044Z,35.97
2018-12-20T03:05:50.628Z,34.75
2018-12-20T03:08:20.495Z,34.07
2018-12-20T03:10:50.068Z,33.43
2018-12-20T03:13:19.671Z,35.00
2018-12-20T03:15:49.574Z,32.45
2018-12-20T03:18:19.643Z,31.60
2018-12-20T03:20:49.582Z,34.13
2018-12-20T03:23:19.389Z,33.00
2018-12-20T03:25:49.646Z,33.02
2018-12-20T03:28:19.370Z,32.70
2018-12-20T03:30:49.152Z,33.00
2018-12-20T03:33:19.398Z,30.67
2018-12-20T03:35:49.486Z,29.57
2018-12-20T03:38:19.095Z,29.33
2018-12-20T03:40:48.695Z,31.02
2018-12-20T03:43:18.336Z,29.47
2018-12-20T03:45:48.005Z,30.65
2018-12-20T03:48:18.046Z,30.30
2018-12-20T03:50:47.949Z,29.53
2018-12-20T03:53:17.964Z,29.40
2018-12-20T03:55:48.164Z,29.10
2018-12-20T03:58:17.760Z,30.70
2018-12-20T04:00:48.059Z,30.17
2018-12-20T04:03:17.489Z,28.80
2018-12-20T04:05:47.139Z,29.67
2018-12-20T04:08:17.108Z,29.07
2018-12-20T04:10:47.231Z,29.02
2018-12-20T04:13:16.920Z,29.67
2018-12-20T04:15:46.263Z,28.38
2018-12-20T04:18:15.752Z,29.27
2018-12-20T04:20:45.177Z,28.37
2018-12-20T04:23:14.594Z,28.37
2018-12-20T04:25:44.247Z,27.43
2018-12-20T04:28:15.388Z,28.07
2018-12-20T04:30:46.561Z,26.73
2018-12-20T04:33:18.021Z,26.33
2018-12-20T04:35:47.511Z,27.47
2018-12-20T04:38:17.069Z,26.60
2018-12-20T04:40:46.940Z,27.70
2018-12-20T04:43:19.198Z,27.90
2018-12-20T04:45:48.982Z,26.90
2018-12-20T04:48:18.954Z,26.77
2018-12-20T04:50:48.690Z,27.43
2018-12-20T04:53:18.284Z,26.75
2018-12-20T04:55:48.289Z,26.23
2018-12-20T04:58:18.347Z,28.33
2018-12-20T05:00:48.559Z,28.30
2018-12-20T05:03:18.751Z,28.57
2018-12-20T05:05:48.855Z,28.90
2018-12-20T05:08:18.358Z,28.60
2018-12-20T05:10:48.319Z,29.50
2018-12-20T05:13:17.923Z,27.30
2018-12-20T05:15:55.864Z,29.05
2018-12-20T05:18:19.349Z,29.65
2018-12-20T05:20:49.042Z,28.30
2018-12-20T05:23:18.834Z,30.10
2018-12-20T05:25:48.840Z,29.60
2018-12-20T05:28:18.800Z,29.03
2018-12-20T05:30:51.388Z,31.27
2018-12-20T05:33:21.394Z,31.67
2018-12-20T05:35:51.132Z,32.40
2018-12-20T05:38:21.374Z,30.37
2018-12-20T05:40:51.267Z,31.40
2018-12-20T05:43:21.439Z,30.80
2018-12-20T05:46:04.581Z,32.17
2018-12-20T05:48:34.011Z,33.27
2018-12-20T05:51:03.767Z,32.87
2018-12-20T05:53:34.047Z,31.93
2018-12-20T05:56:04.001Z,33.43
2018-12-20T05:58:35.026Z,31.80
2018-12-20T06:01:04.692Z,31.50
2018-12-20T06:03:34.965Z,31.63
2018-12-20T06:06:10.059Z,32.23
2018-12-20T06:08:39.962Z,30.53
2018-12-20T06:11:09.401Z,30.17
2018-12-20T06:13:39.696Z,29.87
2018-12-20T06:16:13.024Z,28.30
2018-12-20T06:18:42.778Z,27.73
2018-12-20T06:21:12.518Z,29.47
2018-12-20T06:23:42.649Z,28.43
2018-12-20T06:26:14.804Z,27.60
2018-12-20T06:28:44.227Z,26.40
2018-12-20T06:31:14.018Z,26.70
2018-12-20T06:33:43.659Z,25.20
2018-12-20T06:36:13.620Z,24.43
2018-12-20T06:38:43.115Z,24.13
2018-12-20T06:41:13.118Z,22.80
2018-12-20T06:43:45.386Z,23.57
2018-12-20T06:46:21.084Z,22.93
2018-12-20T06:48:47.454Z,22.57
2018-12-20T06:51:18.380Z,23.03
2018-12-20T06:53:47.798Z,22.37
2018-12-20T06:56:17.818Z,22.07
2018-12-20T06:58:47.258Z,21.87
2018-12-20T07:01:18.493Z,21.33
2018-12-20T07:03:47.906Z,21.93
2018-12-20T07:06:22.705Z,23.13
2018-12-20T07:08:54.506Z,22.13
2018-12-20T07:11:25.150Z,22.10
2018-12-20T07:13:54.631Z,22.37
2018-12-20T07:16:29.335Z,22.00
2018-12-20T07:18:56.267Z,22.73
2018-12-20T07:21:26.303Z,22.57
2018-12-20T07:23:56.671Z,24.97
2018-12-20T07:26:26.063Z,23.93
2018-12-20T07:28:57.293Z,24.93
2018-12-20T07:31:27.314Z,24.07
2018-12-20T07:33:57.368Z,26.90
2018-12-20T07:36:27.431Z,23.43
2018-12-20T07:38:57.275Z,24.47
2018-12-20T07:41:27.873Z,26.07
2018-12-20T07:43:57.421Z,24.90
2018-12-20T07:46:27.188Z,25.77
2018-12-20T07:48:56.661Z,25.07
2018-12-20T07:51:27.259Z,24.47
2018-12-20T07:53:56.730Z,24.67
2018-12-20T07:56:26.173Z,23.55
2018-12-20T07:58:55.642Z,24.30
2018-12-20T08:01:25.253Z,26.52
2018-12-20T08:03:54.943Z,24.97
2018-12-20T08:06:24.480Z,25.27
2018-12-20T08:08:54.194Z,23.93
2018-12-20T08:11:23.862Z,26.05
2018-12-20T08:13:54.022Z,26.97
2018-12-20T08:16:23.534Z,27.30
2018-12-20T08:18:53.065Z,27.97
2018-12-20T08:21:22.574Z,27.02
2018-12-20T08:23:52.058Z,26.03
2018-12-20T08:26:21.984Z,26.52
2018-12-20T08:28:51.380Z,24.90
2018-12-20T08:31:21.076Z,26.10
2018-12-20T08:33:50.855Z,26.67
2018-12-20T08:36:21.250Z,27.35
2018-12-20T08:38:50.709Z,25.97
2018-12-20T08:41:20.927Z,26.87
2018-12-20T08:43:50.322Z,27.20
2018-12-20T08:46:20.005Z,28.23
2018-12-20T08:48:49.509Z,27.97
2018-12-20T08:51:19.274Z,28.20
2018-12-20T08:53:49.458Z,27.83
2018-12-20T08:56:19.698Z,28.10
2018-12-20T08:58:49.121Z,27.70
2018-12-20T09:01:18.684Z,29.02
2018-12-20T09:03:48.237Z,27.77
2018-12-20T09:06:18.032Z,29.03
2018-12-20T09:08:47.772Z,31.30
2018-12-20T09:11:17.682Z,28.73
2018-12-20T09:13:47.546Z,27.57
2018-12-20T09:16:17.311Z,27.53
2018-12-20T09:18:46.721Z,27.80
2018-12-20T09:21:21.936Z,28.13
2018-12-20T09:23:52.167Z,26.83
2018-12-20T09:26:21.880Z,27.33
2018-12-20T09:28:53.251Z,28.77
2018-12-20T09:31:23.016Z,29.43
2018-12-20T09:33:52.370Z,29.63
2018-12-20T09:36:21.831Z,28.60
2018-12-20T09:38:51.258Z,29.63
2018-12-20T09:41:21.259Z,30.23
2018-12-20T09:43:50.810Z,29.97
2018-12-20T09:46:24.359Z,30.07
2018-12-20T09:48:53.769Z,29.55
2018-12-20T09:51:23.647Z,31.07
2018-12-20T09:53:53.886Z,30.93
2018-12-20T09:56:23.487Z,31.60
2018-12-20T09:58:53.224Z,29.35
2018-12-20T10:01:22.709Z,31.33
2018-12-20T10:03:53.941Z,31.00
2018-12-20T10:06:23.414Z,32.13
2018-12-20T10:08:53.236Z,31.70
2018-12-20T10:11:23.002Z,31.27
2018-12-20T10:13:53.228Z,33.33
2018-12-20T10:16:22.586Z,32.85
2018-12-20T10:18:51.923Z,32.17
2018-12-20T10:21:21.969Z,34.57
2018-12-20T10:23:55.203Z,33.67
2018-12-20T10:26:28.995Z,34.33
2018-12-20T10:29:03.918Z,35.43
2018-12-20T10:31:33.315Z,35.73
2018-12-20T10:34:03.046Z,36.93
2018-12-20T10:36:32.554Z,36.50
2018-12-20T10:39:01.891Z,36.57
2018-12-20T10:41:31.899Z,34.63
2018-12-20T10:44:01.625Z,35.17
2018-12-20T10:46:32.079Z,37.03
2018-12-20T10:49:02.093Z,36.53
2018-12-20T10:51:31.835Z,37.27
2018-12-20T10:54:02.111Z,37.27
2018-12-20T10:56:32.097Z,37.23
2018-12-20T10:59:01.523Z,37.10
2018-12-20T11:01:36.274Z,37.20
2018-12-20T11:04:10.817Z,39.07
2018-12-20T11:06:45.469Z,38.28
2018-12-20T11:09:20.511Z,38.23
2018-12-20T11:11:55.691Z,38.93
2018-12-20T11:14:26.050Z,39.00
2018-12-20T11:16:56.584Z,40.97
2018-12-20T11:19:26.348Z,41.77
2018-12-20T11:21:56.573Z,41.00
2018-12-20T11:24:26.274Z,40.85
2018-12-20T11:26:57.568Z,41.50
2018-12-20T11:29:30.300Z,40.90
2018-12-20T11:31:59.931Z,42.00
2018-12-20T11:34:29.582Z,43.30
2018-12-20T11:36:59.716Z,41.40
2018-12-20T11:39:29.127Z,41.63
2018-12-20T11:41:59.966Z,41.43
2018-12-20T11:44:29.781Z,42.33
2018-12-20T11:47:00.614Z,42.87
2018-12-20T11:49:34.545Z,43.50
2018-12-20T11:52:05.288Z,42.57
2018-12-20T11:54:37.343Z,42.97
2018-12-20T11:57:08.411Z,42.60
2018-12-20T11:59:39.325Z,46.17
2018-12-20T12:02:10.185Z,41.83
2018-12-20T12:04:41.206Z,43.37
2018-12-20T12:07:12.771Z,43.80
2018-12-20T12:09:46.185Z,44.25
2018-12-20T12:12:17.985Z,40.63
2018-12-20T12:14:48.684Z,42.27
2018-12-20T12:17:19.413Z,42.60
2018-12-20T12:19:51.208Z,41.57
2018-12-20T12:22:22.226Z,42.77
2018-12-20T12:24:54.524Z,42.10
2018-12-20T12:27:25.762Z,42.00
2018-12-20T12:29:58.556Z,41.40
2018-12-20T12:32:29.680Z,40.50
2018-12-20T12:35:01.651Z,40.20
2018-12-20T12:37:31.059Z,40.92
2018-12-20T12:40:01.232Z,40.57
2018-12-20T12:42:30.641Z,42.10
2018-12-20T12:45:00.131Z,39.27
2018-12-20T12:47:34.729Z,36.97
2018-12-20T12:50:04.358Z,37.60
2018-12-20T12:52:34.034Z,38.00
2018-12-20T12:55:04.278Z,37.83
2018-12-20T12:57:33.992Z,35.95
2018-12-20T13:00:05.939Z,37.07
2018-12-20T13:02:35.773Z,37.03
2018-12-20T13:05:06.132Z,36.03
2018-12-20T13:07:36.302Z,35.03
2018-12-20T13:10:06.402Z,37.53
2018-12-20T13:12:36.596Z,35.80
2018-12-20T13:15:12.064Z,35.47
2018-12-20T13:17:41.984Z,33.53
2018-12-20T13:20:12.057Z,34.47
2018-12-20T13:22:41.441Z,35.00
2018-12-20T13:25:11.237Z,34.97
2018-12-20T13:27:40.641Z,34.63
2018-12-20T13:30:15.378Z,33.77
2018-12-20T13:32:45.328Z,31.87
2018-12-20T13:35:14.741Z,32.30
2018-12-20T13:37:45.131Z,33.10
2018-12-20T13:40:14.894Z,33.03
2018-12-20T13:42:44.365Z,31.97
2018-12-20T13:45:14.278Z,31.27
2018-12-20T13:47:44.356Z,32.63
2018-12-20T13:50:14.309Z,30.80
2018-12-20T13:52:44.020Z,31.82
2018-12-20T13:55:18.688Z,30.63
2018-12-20T13:57:50.143Z,32.00
2018-12-20T14:00:20.822Z,31.87
2018-12-20T14:02:50.250Z,32.53
2018-12-20T14:05:19.684Z,34.63
2018-12-20T14:07:49.738Z,35.70
2018-12-20T14:10:19.452Z,36.33
2018-12-20T14:12:49.730Z,36.17
2018-12-20T14:15:19.160Z,36.50
2018-12-20T14:17:49.153Z,36.40
2018-12-20T14:20:18.891Z,36.40
2018-12-20T14:22:48.303Z,36.80
2018-12-20T14:25:17.817Z,37.33
2018-12-20T14:27:47.904Z,38.23
2018-12-20T14:30:17.378Z,38.17
2018-12-20T14:32:47.074Z,39.33
2018-12-20T14:35:16.818Z,38.03
2018-12-20T14:37:47.145Z,39.87
2018-12-20T14:40:17.931Z,38.23
2018-12-20T14:42:51.410Z,38.50
2018-12-20T14:45:21.408Z,38.17
2018-12-20T14:47:50.847Z,39.67
2018-12-20T14:50:21.186Z,41.07
2018-12-20T14:52:50.644Z,39.27
2018-12-20T14:55:20.079Z,39.73
2018-12-20T14:57:50.039Z,40.43
2018-12-20T15:00:24.138Z,39.83
2018-12-20T15:02:53.779Z,38.33
2018-12-20T15:05:23.753Z,40.60
2018-12-20T15:07:53.159Z,39.77
2018-12-20T15:10:23.266Z,40.67
2018-12-20T15:12:53.381Z,38.13
2018-12-20T15:15:24.648Z,40.17
2018-12-20T15:17:54.031Z,38.17
2018-12-20T15:20:26.788Z,37.90
2018-12-20T15:22:56.580Z,40.53
2018-12-20T15:25:26.926Z,39.87
2018-12-20T15:27:56.608Z,38.10
2018-12-20T15:30:26.974Z,37.03
2018-12-20T15:32:56.852Z,36.73
2018-12-20T15:35:27.250Z,36.45
2018-12-20T15:37:56.737Z,36.63
2018-12-20T15:40:28.185Z,35.68
2018-12-20T15:42:57.561Z,35.47
2018-12-20T15:45:27.562Z,36.23
2018-12-20T15:47:57.554Z,34.83
2018-12-20T15:50:27.227Z,35.77
2018-12-20T15:52:56.895Z,34.57
2018-12-20T15:55:27.554Z,35.80
2018-12-20T15:57:58.215Z,36.97
2018-12-20T16:00:30.886Z,36.40
2018-12-20T16:03:00.796Z,36.97
2018-12-20T16:05:30.343Z,35.67
2018-12-20T16:08:05.394Z,35.53
2018-12-20T16:10:35.783Z,36.13
2018-12-20T16:13:05.643Z,36.83
2018-12-20T16:15:35.322Z,35.37
2018-12-20T16:18:04.828Z,33.90
2018-12-20T16:20:35.599Z,35.80
2018-12-20T16:23:05.582Z,35.33
2018-12-20T16:25:35.520Z,34.83
2018-12-20T16:28:05.816Z,35.93
2018-12-20T16:30:35.279Z,35.27
2018-12-20T16:33:05.542Z,37.73
2018-12-20T16:35:35.180Z,36.20
2018-12-20T16:38:04.763Z,38.07
2018-12-20T16:40:34.134Z,37.53
2018-12-20T16:43:03.538Z,34.70
2018-12-20T16:45:32.982Z,37.38
2018-12-20T16:48:02.706Z,34.63
2018-12-20T16:50:32.054Z,37.33
2018-12-20T16:53:01.995Z,39.20
2018-12-20T16:55:31.497Z,37.80
2018-12-20T16:58:01.643Z,37.17
2018-12-20T17:00:31.570Z,36.03
2018-12-20T17:03:01.428Z,38.13
2018-12-20T17:05:31.745Z,37.47
2018-12-20T17:08:01.211Z,37.20
2018-12-20T17:10:30.895Z,34.90
2018-12-20T17:13:01.378Z,35.63
2018-12-20T17:15:31.525Z,36.03
2018-12-20T17:18:00.925Z,35.90
2018-12-20T17:20:30.430Z,36.27
2018-12-20T17:23:01.961Z,35.87
2018-12-20T17:25:31.385Z,35.30
2018-12-20T17:28:00.767Z,33.10
2018-12-20T17:30:31.098Z,36.63
2018-12-20T17:33:01.062Z,34.37
2018-12-20T17:35:30.575Z,33.45
2018-12-20T17:38:01.025Z,35.17
2018-12-20T17:40:30.519Z,34.03
2018-12-20T17:43:01.090Z,34.20
2018-12-20T17:45:31.143Z,35.57
2018-12-20T17:48:00.894Z,34.27
2018-12-20T17:50:30.835Z,34.93
2018-12-20T17:53:00.347Z,32.30
2018-12-20T17:55:30.654Z,33.27
2018-12-20T17:58:00.066Z,35.40
2018-12-20T18:00:34.301Z,33.53
2018-12-20T18:03:03.719Z,33.47
2018-12-20T18:05:33.086Z,34.00
2018-12-20T18:10:43.549Z,31.50
2018-12-20T18:13:13.201Z,32.87
2018-12-20T18:15:42.691Z,32.70
2018-12-20T18:18:12.757Z,31.23
2018-12-20T18:20:42.251Z,33.63
2018-12-20T18:23:11.962Z,32.73
2018-12-20T18:25:41.838Z,33.07
2018-12-20T18:28:11.318Z,32.63
2018-12-20T18:30:40.715Z,32.98
2018-12-20T18:33:10.425Z,31.53
2018-12-20T18:35:39.834Z,30.82
2018-12-20T18:38:11.202Z,31.73
2018-12-20T18:40:40.562Z,31.97
2018-12-20T18:43:13.054Z,31.60
2018-12-20T18:45:42.453Z,30.97
2018-12-20T18:48:11.941Z,30.40
2018-12-20T18:50:42.053Z,28.95
2018-12-20T18:53:11.508Z,29.23
2018-12-20T18:55:41.793Z,31.10
2018-12-20T18:58:11.879Z,30.27
2018-12-20T19:00:42.365Z,28.60
2018-12-20T19:03:12.164Z,28.63
2018-12-20T19:05:42.064Z,29.30
2018-12-20T19:08:13.207Z,30.97
2018-12-20T19:10:43.280Z,28.83
2018-12-20T19:13:13.228Z,27.93
2018-12-20T19:15:44.212Z,28.00
2018-12-20T19:18:13.939Z,28.20
2018-12-20T19:20:43.896Z,27.37
2018-12-20T19:23:13.871Z,28.50
2018-12-20T19:25:43.247Z,28.00
2018-12-20T19:28:13.067Z,27.67
2018-12-20T19:30:42.432Z,27.40
2018-12-20T19:33:12.996Z,27.80
2018-12-20T19:35:42.770Z,27.42
2018-12-20T19:38:20.242Z,28.10
2018-12-20T19:40:44.394Z,27.53
2018-12-20T19:43:13.741Z,27.13
2018-12-20T19:45:46.182Z,28.97
2018-12-20T19:48:15.030Z,27.93
2018-12-20T19:50:45.864Z,28.77
2018-12-20T19:53:15.455Z,30.50
2018-12-20T19:55:45.111Z,28.95
2018-12-20T19:58:18.180Z,28.90
2018-12-20T20:00:51.867Z,29.50
2018-12-20T20:03:21.368Z,29.27
2018-12-20T20:05:50.772Z,30.03
2018-12-20T20:08:20.197Z,29.57
2018-12-20T20:10:49.888Z,30.77
2018-12-20T20:13:19.648Z,29.77
2018-12-20T20:15:49.330Z,29.37
2018-12-20T20:18:18.981Z,31.60
2018-12-20T20:20:48.733Z,30.93
2018-12-20T20:23:19.167Z,30.63
2018-12-20T20:25:48.669Z,30.07
2018-12-20T20:28:18.899Z,29.00
2018-12-20T20:30:48.367Z,30.43
2018-12-20T20:33:18.346Z,31.23
2018-12-20T20:35:47.703Z,30.10
2018-12-20T20:38:17.166Z,32.20
2018-12-20T20:40:46.591Z,31.27
2018-12-20T20:43:16.103Z,33.03
2018-12-20T20:45:49.409Z,31.45
2018-12-20T20:48:18.888Z,32.33
2018-12-20T20:50:48.315Z,31.70
2018-12-20T20:53:18.034Z,30.87
2018-12-20T20:55:47.846Z,31.77
2018-12-20T20:58:17.335Z,30.70
2018-12-20T21:00:47.232Z,34.13
2018-12-20T21:03:16.678Z,31.27
2018-12-20T21:05:46.034Z,31.40
2018-12-20T21:08:15.556Z,32.60
2018-12-20T21:10:44.991Z,32.30
2018-12-20T21:13:14.424Z,32.50
2018-12-20T21:15:44.140Z,30.73
2018-12-20T21:18:15.468Z,29.93
2018-12-20T21:20:46.436Z,33.70
2018-12-20T21:23:16.290Z,32.10
2018-12-20T21:25:45.672Z,30.40
2018-12-20T21:28:17.242Z,28.70
2018-12-20T21:30:46.638Z,29.00
2018-12-20T21:33:16.224Z,29.73
2018-12-20T21:35:47.911Z,29.80
2018-12-20T21:38:17.345Z,29.77
2018-12-20T21:40:47.537Z,30.13
2018-12-20T21:43:17.215Z,28.70
2018-12-20T21:45:49.116Z,29.20
2018-12-20T21:48:18.525Z,29.50
2018-12-20T21:50:48.140Z,29.73
2018-12-20T21:53:17.801Z,29.00
2018-12-20T21:55:48.080Z,27.37
2018-12-20T21:58:17.484Z,27.00
2018-12-20T22:00:46.928Z,26.73
2018-12-20T22:03:23.711Z,26.43
2018-12-20T22:05:56.119Z,26.57
2018-12-20T22:08:26.201Z,27.00
2018-12-20T22:10:56.203Z,25.07
2018-12-20T22:13:25.943Z,25.83
2018-12-20T22:15:55.677Z,25.80
2018-12-20T22:18:26.412Z,27.27
2018-12-20T22:20:56.548Z,26.20
2018-12-20T22:23:29.318Z,24.57
2018-12-20T22:26:02.202Z,24.83
2018-12-20T22:28:32.002Z,23.97
2018-12-20T22:31:01.775Z,25.27
2018-12-20T22:33:31.618Z,26.37
2018-12-20T22:36:01.142Z,25.07
2018-12-20T22:38:30.567Z,24.80
2018-12-20T22:41:00.385Z,24.87
2018-12-20T22:43:32.974Z,25.40
2018-12-20T22:46:02.801Z,24.73
2018-12-20T22:48:32.461Z,25.43
2018-12-20T22:51:01.843Z,22.90
2018-12-20T22:53:31.827Z,25.03
2018-12-20T22:56:01.278Z,24.10
2018-12-20T22:58:30.714Z,22.67
2018-12-20T23:01:03.651Z,22.07
2018-12-20T23:03:36.499Z,21.77
2018-12-20T23:06:05.843Z,22.10
2018-12-20T23:08:35.327Z,22.50
2018-12-20T23:11:04.610Z,20.27
2018-12-20T23:13:34.370Z,21.80
2018-12-20T23:16:04.122Z,21.83
2018-12-20T23:18:33.931Z,19.90
2018-12-20T23:21:05.147Z,18.87
2018-12-20T23:23:35.209Z,19.57
2018-12-20T23:26:05.315Z,19.27
2018-12-20T23:28:34.719Z,20.23
2018-12-20T23:31:05.880Z,19.77
2018-12-20T23:33:35.182Z,19.70
2018-12-20T23:36:05.332Z,19.77
2018-12-20T23:38:35.022Z,21.20
2018-12-20T23:41:05.216Z,19.47
2018-12-20T23:43:34.959Z,19.45
2018-12-20T23:46:04.842Z,18.43
2018-12-20T23:48:34.808Z,20.47
2018-12-20T23:51:04.411Z,20.47
2018-12-20T23:53:38.570Z,19.93
2018-12-20T23:56:08.152Z,18.67
2018-12-20T23:58:38.163Z,19.98
